createdAt,value
2023-01-02T00:02:00.783Z,9.51
2023-01-02T00:04:27.194Z,9.96
2023-01-02T00:06:53.652Z,9.95
2023-01-02T00:09:20.120Z,9.93
2023-01-02T00:11:46.676Z,9.63
2023-01-02T00:14:13.196Z,9.53
2023-01-02T00:16:39.765Z,9.90
2023-01-02T00:19:08.565Z,9.65
2023-01-02T00:21:35.090Z,9.85
2023-01-02T00:24:01.741Z,9.63
2023-01-02T00:26:30.216Z,9.85
2023-01-02T00:28:56.653Z,9.89
2023-01-02T00:31:23.311Z,9.65
2023-01-02T00:33:49.893Z,9.84
2023-01-02T00:36:16.402Z,9.78
2023-01-02T00:38:42.882Z,9.85
2023-01-02T00:41:10.068Z,9.76
2023-01-02T00:43:37.292Z,9.76
2023-01-02T00:46:10.871Z,9.70
2023-01-02T00:48:37.816Z,9.83
2023-01-02T00:51:04.309Z,9.84
2023-01-02T00:53:30.756Z,9.71
2023-01-02T00:55:57.307Z,10.06
2023-01-02T00:58:23.734Z,9.98
2023-01-02T01:00:50.968Z,10.17
2023-01-02T01:03:17.806Z,9.98
2023-01-02T01:05:44.251Z,10.14
2023-01-02T01:08:10.688Z,10.10
2023-01-02T01:10:38.107Z,10.14
2023-01-02T01:13:05.604Z,9.86
2023-01-02T01:15:33.945Z,9.92
2023-01-02T01:18:00.473Z,9.93
2023-01-02T01:20:27.088Z,9.71
2023-01-02T01:22:53.581Z,9.64
2023-01-02T01:25:20.988Z,9.62
2023-01-02T01:27:47.533Z,9.71
2023-01-02T01:30:14.145Z,9.83
2023-01-02T01:32:40.569Z,9.80
2023-01-02T01:35:07.764Z,9.45
2023-01-02T01:37:34.288Z,9.66
2023-01-02T01:40:00.710Z,9.92
2023-01-02T01:42:32.855Z,9.60
2023-01-02T01:44:59.484Z,9.69
2023-01-02T01:47:28.651Z,9.64
2023-01-02T01:50:08.975Z,9.77
2023-01-02T01:52:41.061Z,9.61
2023-01-02T01:55:16.183Z,9.83
2023-01-02T01:57:55.646Z,9.80
2023-01-02T02:00:22.118Z,9.84
2023-01-02T02:02:51.694Z,9.85
2023-01-02T02:09:14.175Z,9.64
2023-01-02T02:11:41.563Z,9.70
2023-01-02T02:14:08.065Z,9.73
2023-01-02T02:16:40.257Z,9.83
2023-01-02T02:19:34.770Z,9.78
2023-01-02T02:22:26.523Z,9.85
2023-01-02T02:25:17.835Z,9.82
2023-01-02T02:28:09.107Z,9.90
2023-01-02T02:30:55.412Z,9.99
2023-01-02T02:33:36.914Z,10.01
2023-01-02T02:36:18.242Z,9.99
2023-01-02T02:38:59.198Z,10.02
2023-01-02T02:41:31.663Z,10.18
2023-01-02T02:44:35.813Z,9.91
2023-01-02T02:47:20.521Z,10.11
2023-01-02T02:50:03.298Z,10.04
2023-01-02T02:52:36.037Z,9.95
2023-01-02T02:55:12.920Z,9.97
2023-01-02T02:57:40.191Z,10.10
2023-01-02T03:00:09.962Z,10.16
2023-01-02T03:02:37.325Z,10.14
2023-01-02T03:05:09.232Z,10.21
2023-01-02T03:07:46.561Z,10.05
2023-01-02T03:10:25.289Z,10.03
2023-01-02T03:13:21.977Z,10.11
2023-01-02T03:15:57.347Z,10.17
2023-01-02T03:18:35.205Z,10.27
2023-01-02T03:21:10.353Z,10.02
2023-01-02T03:23:43.231Z,10.01
2023-01-02T03:26:11.792Z,10.08
2023-01-02T03:28:42.473Z,10.33
2023-01-02T03:31:16.161Z,10.37
2023-01-02T03:33:50.984Z,10.24
2023-01-02T03:36:22.417Z,10.47
2023-01-02T03:39:00.181Z,10.36
2023-01-02T03:41:38.116Z,10.33
2023-01-02T03:44:07.727Z,10.49
2023-01-02T03:47:02.949Z,10.56
2023-01-02T03:49:37.370Z,10.50
2023-01-02T03:52:03.934Z,10.46
2023-01-02T03:54:30.802Z,10.45
2023-01-02T03:56:59.388Z,10.55
2023-01-02T03:59:44.475Z,10.47
2023-01-02T04:02:29.771Z,10.47
2023-01-02T04:05:06.452Z,10.63
2023-01-02T04:08:21.296Z,10.60
2023-01-02T04:10:56.351Z,10.63
2023-01-02T04:13:53.908Z,10.67
2023-01-02T04:16:24.626Z,10.76
2023-01-02T04:18:57.114Z,10.77
2023-01-02T04:21:29.362Z,10.65
2023-01-02T04:24:02.076Z,10.62
2023-01-02T04:26:56.284Z,10.85
2023-01-02T04:29:22.820Z,10.68
2023-01-02T04:31:56.150Z,10.62
2023-01-02T04:34:25.492Z,10.64
2023-01-02T04:36:51.950Z,10.77
2023-01-02T04:39:21.521Z,10.72
2023-01-02T04:41:48.032Z,10.72
2023-01-02T04:44:14.451Z,10.77
2023-01-02T04:46:41.079Z,10.74
2023-01-02T04:49:07.645Z,10.89
2023-01-02T04:51:34.123Z,10.70
2023-01-02T04:54:00.573Z,10.77
2023-01-02T04:56:27.076Z,10.78
2023-01-02T04:58:53.505Z,10.69
2023-01-02T05:01:21.445Z,10.81
2023-01-02T05:03:49.920Z,10.61
2023-01-02T05:06:16.469Z,10.86
2023-01-02T05:08:42.967Z,10.84
2023-01-02T05:11:12.225Z,10.88
2023-01-02T05:13:38.835Z,10.81
2023-01-02T05:16:05.895Z,10.93
2023-01-02T05:18:32.369Z,10.91
2023-01-02T05:21:35.226Z,11.07
2023-01-02T05:24:03.226Z,10.91
2023-01-02T05:26:33.327Z,10.96
2023-01-02T05:29:00.209Z,10.85
2023-01-02T05:31:27.692Z,10.88
2023-01-02T05:33:56.273Z,10.87
2023-01-02T05:36:23.833Z,10.65
2023-01-02T05:38:50.480Z,10.71
2023-01-02T05:41:17.263Z,10.78
2023-01-02T05:43:43.754Z,10.78
2023-01-02T05:46:21.162Z,10.87
2023-01-02T05:48:47.834Z,10.91
2023-01-02T05:51:16.479Z,10.92
2023-01-02T05:53:43.401Z,10.72
2023-01-02T05:56:12.272Z,10.91
2023-01-02T05:58:41.375Z,10.86
2023-01-02T06:01:16.171Z,10.94
2023-01-02T06:03:50.531Z,10.93
2023-01-02T06:06:18.916Z,10.94
2023-01-02T06:08:45.602Z,11.04
2023-01-02T06:11:12.145Z,11.01
2023-01-02T06:13:39.471Z,11.04
2023-01-02T06:16:07.943Z,11.01
2023-01-02T06:18:36.265Z,10.99
2023-01-02T06:21:05.902Z,11.06
2023-01-02T06:23:32.655Z,11.15
2023-01-02T06:26:04.364Z,11.01
2023-01-02T06:28:31.052Z,11.08
2023-01-02T06:31:08.316Z,10.95
2023-01-02T06:33:35.010Z,11.00
2023-01-02T06:36:04.460Z,11.14
2023-01-02T06:38:31.039Z,11.12
2023-01-02T06:40:59.786Z,11.01
2023-01-02T06:43:27.506Z,11.16
2023-01-02T06:45:57.901Z,11.18
2023-01-02T06:48:24.639Z,11.10
2023-01-02T06:50:51.197Z,11.20
2023-01-02T06:53:17.646Z,10.94
2023-01-02T06:55:54.673Z,11.21
2023-01-02T06:58:21.670Z,11.07
2023-01-02T07:00:49.228Z,11.22
2023-01-02T07:03:16.987Z,11.16
2023-01-02T07:05:44.050Z,11.09
2023-01-02T07:08:11.480Z,11.22
2023-01-02T07:10:38.396Z,11.34
2023-01-02T07:13:05.070Z,11.20
2023-01-02T07:15:32.541Z,11.29
2023-01-02T07:17:59.008Z,11.19
2023-01-02T07:20:25.489Z,11.13
2023-01-02T07:22:53.366Z,11.17
2023-01-02T07:25:21.247Z,11.25
2023-01-02T07:27:48.154Z,11.08
2023-01-02T07:30:15.370Z,11.22
2023-01-02T07:32:43.200Z,11.15
2023-01-02T07:35:10.984Z,11.18
2023-01-02T07:37:37.574Z,11.19
2023-01-02T07:40:04.685Z,11.24
2023-01-02T07:42:31.174Z,11.22
2023-01-02T07:44:57.680Z,11.20
2023-01-02T07:47:24.145Z,11.37
2023-01-02T07:49:50.669Z,11.23
2023-01-02T07:52:17.172Z,11.26
2023-01-02T07:54:43.634Z,11.30
2023-01-02T07:57:10.109Z,11.23
2023-01-02T07:59:36.577Z,11.37
2023-01-02T08:02:03.126Z,11.36
2023-01-02T08:04:29.768Z,11.32
2023-01-02T08:06:56.235Z,11.51
2023-01-02T08:09:22.723Z,11.63
2023-01-02T08:11:49.160Z,11.37
2023-01-02T08:14:21.575Z,11.43
2023-01-02T08:16:49.830Z,11.56
2023-01-02T08:19:16.447Z,11.70
2023-01-02T08:21:42.900Z,11.45
2023-01-02T08:24:09.680Z,11.47
2023-01-02T08:26:36.097Z,11.56
2023-01-02T08:29:02.725Z,11.57
2023-01-02T08:31:29.176Z,11.57
2023-01-02T08:33:55.677Z,11.44
2023-01-02T08:36:22.127Z,11.58
2023-01-02T08:38:48.826Z,11.53
2023-01-02T08:41:15.352Z,11.61
2023-01-02T08:43:41.823Z,11.51
2023-01-02T08:46:10.234Z,11.70
2023-01-02T08:48:37.375Z,11.54
2023-01-02T08:51:04.939Z,11.72
2023-01-02T08:53:31.404Z,11.75
2023-01-02T08:56:21.164Z,11.68
2023-01-02T08:58:55.720Z,11.78
2023-01-02T09:01:24.780Z,11.89
2023-01-02T09:03:53.195Z,11.73
2023-01-02T09:06:22.365Z,11.73
2023-01-02T09:08:49.594Z,11.87
2023-01-02T09:24:26.443Z,11.91
2023-01-02T09:30:14.605Z,11.92
2023-01-02T09:41:21.628Z,12.20
2023-01-02T09:44:22.283Z,12.17
2023-01-02T09:47:29.588Z,12.26
2023-01-02T10:09:45.212Z,12.57
2023-01-02T10:21:38.895Z,12.65
2023-01-02T10:46:37.176Z,12.67
2023-01-02T10:49:05.064Z,12.47
2023-01-02T10:54:09.498Z,12.36
2023-01-02T10:56:39.682Z,12.59
2023-01-02T10:59:43.516Z,12.65
2023-01-02T11:02:26.972Z,12.79
2023-01-02T11:04:53.770Z,12.62
2023-01-02T11:48:37.155Z,12.59
2023-01-02T12:14:22.546Z,12.43
2023-01-02T12:27:57.397Z,12.26
2023-01-02T12:35:49.278Z,12.10
2023-01-02T12:38:33.069Z,12.20
2023-01-02T12:41:25.204Z,12.21
2023-01-02T14:08:16.497Z,12.11
2023-01-02T14:23:00.883Z,12.07
2023-01-02T14:54:48.351Z,12.17
2023-01-02T14:57:32.093Z,12.50
2023-01-02T15:48:34.556Z,12.01
2023-01-02T18:30:18.939Z,9.92
2023-01-02T18:32:46.732Z,9.86
2023-01-02T18:38:36.734Z,9.89
2023-01-02T18:41:24.752Z,9.83
2023-01-02T18:43:54.992Z,9.59
2023-01-02T18:47:03.625Z,9.86
2023-01-02T18:49:29.280Z,10.00
2023-01-02T18:52:10.925Z,9.99
2023-01-02T18:54:43.017Z,9.81
2023-01-02T18:57:15.390Z,10.06
2023-01-02T18:59:50.040Z,9.70
2023-01-02T19:02:30.599Z,9.76
2023-01-02T19:04:57.802Z,9.94
2023-01-02T19:07:30.213Z,10.00
2023-01-02T19:10:37.367Z,9.96
2023-01-02T19:13:12.550Z,9.93
2023-01-02T19:15:59.498Z,9.80
2023-01-02T19:18:45.394Z,9.65
2023-01-02T19:21:18.606Z,9.60
2023-01-02T19:23:55.119Z,9.58
2023-01-02T19:26:29.560Z,9.65
2023-01-02T19:28:59.379Z,9.63
2023-01-02T19:31:36.028Z,9.73
2023-01-02T19:34:03.666Z,9.44
2023-01-02T19:36:36.647Z,9.54
2023-01-02T19:39:26.721Z,9.35
2023-01-02T19:42:12.341Z,9.40
2023-01-02T19:44:38.751Z,9.57
2023-01-02T19:47:05.776Z,9.42
2023-01-02T19:49:32.219Z,9.37
2023-01-02T19:51:58.691Z,9.55
2023-01-02T19:54:25.164Z,9.38
2023-01-02T19:56:51.726Z,9.53
2023-01-02T19:59:18.168Z,9.35
2023-01-02T20:01:45.016Z,9.38
2023-01-02T20:04:11.566Z,9.16
2023-01-02T20:06:38.187Z,9.29
2023-01-02T20:09:04.629Z,9.08
2023-01-02T20:11:50.066Z,9.25
2023-01-02T20:14:16.547Z,9.29
2023-01-02T20:16:43.010Z,9.29
2023-01-02T20:19:09.658Z,9.42
2023-01-02T20:21:36.387Z,9.23
2023-01-02T20:24:02.887Z,9.23
2023-01-02T20:26:30.099Z,9.12
2023-01-02T20:28:56.546Z,9.21
2023-01-02T20:31:23.096Z,8.99
2023-01-02T20:33:49.563Z,9.29
2023-01-02T20:36:16.114Z,9.13
2023-01-02T20:38:42.581Z,8.95
2023-01-02T20:41:09.040Z,8.81
2023-01-02T20:43:35.441Z,8.93
2023-01-02T20:46:01.997Z,9.04
2023-01-02T20:48:28.487Z,9.03
2023-01-02T20:50:54.965Z,8.96
2023-01-02T20:53:21.387Z,8.99
2023-01-02T20:55:48.038Z,8.92
2023-01-02T20:58:14.624Z,8.88
2023-01-02T21:00:41.189Z,8.93
2023-01-02T21:03:07.944Z,8.85
2023-01-02T21:05:34.610Z,9.02
2023-01-02T21:08:01.071Z,8.90
2023-01-02T21:10:27.522Z,8.76
2023-01-02T21:13:12.624Z,8.63
2023-01-02T21:15:51.864Z,8.65
2023-01-02T21:18:26.811Z,8.68
2023-01-02T21:21:11.576Z,8.74
2023-01-02T21:23:39.764Z,8.83
2023-01-02T21:26:08.250Z,8.73
2023-01-02T21:28:35.329Z,8.75
2023-01-02T21:31:02.558Z,8.40
2023-01-02T21:33:30.016Z,8.41
2023-01-02T21:35:59.504Z,8.50
2023-01-02T21:38:27.256Z,8.64
2023-01-02T21:40:55.069Z,8.56
2023-01-02T21:43:22.477Z,8.25
2023-01-02T21:45:49.829Z,8.35
2023-01-02T21:48:16.242Z,8.37
2023-01-02T21:50:42.821Z,8.31
2023-01-02T21:53:09.244Z,8.53
2023-01-02T21:55:35.838Z,8.49
2023-01-02T21:58:12.981Z,8.41
2023-01-02T22:00:40.288Z,8.43
2023-01-02T22:03:06.920Z,8.54
2023-01-02T22:05:33.438Z,8.63
2023-01-02T22:07:59.885Z,8.42
2023-01-02T22:10:26.781Z,8.33
2023-01-02T22:12:53.239Z,8.48
2023-01-02T22:15:19.680Z,8.52
2023-01-02T22:17:46.121Z,8.53
2023-01-02T22:20:12.581Z,8.37
2023-01-02T22:22:39.074Z,8.51
2023-01-02T22:25:06.258Z,8.34
2023-01-02T22:27:32.801Z,8.07
2023-01-02T22:32:47.369Z,8.23
2023-01-02T22:35:13.907Z,8.09
2023-01-02T22:37:40.456Z,7.99
2023-01-02T22:40:07.417Z,8.18
2023-01-02T22:43:01.474Z,8.20
2023-01-02T22:45:31.982Z,8.04
2023-01-02T22:48:01.410Z,7.91
2023-01-02T22:50:33.789Z,7.94
2023-01-02T22:53:00.461Z,7.95
2023-01-02T22:55:26.932Z,7.93
2023-01-02T22:57:53.479Z,8.07
2023-01-02T23:00:22.611Z,7.95
2023-01-02T23:02:50.092Z,7.86
2023-01-02T23:05:19.019Z,7.87
2023-01-02T23:07:46.258Z,7.95
2023-01-02T23:10:13.266Z,7.84
2023-01-02T23:12:39.712Z,7.76
2023-01-02T23:15:08.742Z,7.69
2023-01-02T23:17:53.633Z,7.74
2023-01-02T23:20:20.332Z,7.84
2023-01-02T23:22:47.975Z,7.69
2023-01-02T23:25:15.630Z,7.78
2023-01-02T23:27:42.636Z,7.77
2023-01-02T23:30:09.883Z,7.94
2023-01-02T23:32:36.426Z,7.99
2023-01-02T23:35:03.148Z,7.85
2023-01-02T23:37:29.699Z,7.73
2023-01-02T23:39:56.200Z,7.82
2023-01-02T23:42:22.638Z,7.70
2023-01-02T23:44:49.100Z,7.92
2023-01-02T23:47:19.022Z,7.74
2023-01-02T23:49:46.252Z,7.79
2023-01-02T23:52:13.011Z,7.51
2023-01-02T23:54:39.584Z,7.59
2023-01-02T23:57:06.336Z,7.77
2023-01-02T23:59:32.789Z,7.58
